Time;durP1;ratioP1;P1;durP2;ratioP2;P2;SDS_P1;SDS_P2;PMS_P1;PMS_P2;Temp;Humidity;BMP_temperature;BMP_pressure;BME280_temperature;BME280_humidity;BME280_pressure;Samples;Min_cycle;Max_cycle;Signal;HPM_P1;HPM_P2
2024/01/08 00:01:04;;;;;;;;;21.75;18.00;;;;;2.08;61.02;102305.38;5061682;28;71477;-59
2024/01/08 00:03:30;;;;;;;;;17.25;15.25;;;;;2.04;61.31;102308.84;5076730;28;48538;-61
2024/01/08 00:05:56;;;;;;;;;19.75;13.75;;;;;2.02;61.29;102316.72;5078777;28;45387;-59
2024/01/08 00:08:21;;;;;;;;;15.75;14.50;;;;;1.95;60.83;102309.63;5078990;28;46911;-59
2024/01/08 00:10:46;;;;;;;;;14.50;13.00;;;;;1.91;60.48;102315.72;5075728;28;45666;-59
2024/01/08 00:13:12;;;;;;;;;15.50;14.50;;;;;1.88;60.68;102321.81;5059267;28;67620;-59
2024/01/08 00:15:37;;;;;;;;;14.25;13.00;;;;;1.81;60.43;102328.75;5076390;28;45416;-59
2024/01/08 00:18:03;;;;;;;;;17.25;16.25;;;;;1.77;60.90;102329.56;5063021;28;73873;-59
2024/01/08 00:20:28;;;;;;;;;16.00;12.25;;;;;1.70;60.32;102334.72;5066116;28;45367;-59
2024/01/08 00:22:54;;;;;;;;;13.50;12.50;;;;;1.66;60.45;102323.31;5064644;28;45432;-59
2024/01/08 00:25:22;;;;;;;;;20.75;15.75;;;;;1.65;60.38;102332.03;5078936;28;45519;-60
2024/01/08 00:27:50;;;;;;;;;16.00;12.75;;;;;1.58;59.77;102335.47;5071046;28;46109;-59
2024/01/08 00:30:16;;;;;;;;;4.00;4.00;;;;;1.55;60.66;102330.16;5056128;28;58120;-59
2024/01/08 00:32:42;;;;;;;;;15.75;12.50;;;;;1.53;60.20;102324.03;5078869;28;45346;-59
2024/01/08 00:35:08;;;;;;;;;16.00;14.25;;;;;1.55;60.53;102324.94;5075557;28;45659;-59
2024/01/08 00:37:35;;;;;;;;;10.50;10.50;;;;;1.56;60.38;102324.06;5058124;28;49786;-58
2024/01/08 00:40:04;;;;;;;;;12.00;11.25;;;;;1.57;60.55;102331.94;5058972;28;45360;-59
2024/01/08 00:42:29;;;;;;;;;16.50;14.75;;;;;1.58;59.72;102332.84;5058630;28;45329;-59
2024/01/08 00:44:55;;;;;;;;;18.00;17.50;;;;;1.55;59.67;102328.44;5056731;28;70324;-61
2024/01/08 00:47:20;;;;;;;;;19.50;15.50;;;;;1.51;59.91;102331.88;5040379;28;76541;-59
2024/01/08 00:49:45;;;;;;;;;20.00;17.25;;;;;1.43;58.77;102330.91;5058260;28;72983;-59
2024/01/08 00:52:11;;;;;;;;;19.75;18.75;;;;;1.31;57.96;102336.88;5075551;28;67405;-61
2024/01/08 00:54:36;;;;;;;;;13.50;12.00;;;;;1.31;59.29;102327.25;5061875;28;67210;-61
2024/01/08 00:57:01;;;;;;;;;20.75;19.00;;;;;1.29;59.07;102326.38;5062494;28;76040;-58
2024/01/08 00:59:27;;;;;;;;;21.25;19.50;;;;;1.31;59.77;102322.00;5062313;28;45499;-59
2024/01/08 01:01:52;;;;;;;;;18.00;17.50;;;;;1.34;58.72;102328.16;5057831;28;45458;-62
2024/01/08 01:04:17;;;;;;;;;14.25;12.25;;;;;1.38;59.62;102325.59;5067393;28;45349;-59
2024/01/08 01:06:44;;;;;;;;;19.25;16.00;;;;;1.40;59.72;102315.16;5064268;28;54615;-59
2024/01/08 01:09:09;;;;;;;;;13.25;10.75;;;;;1.44;60.20;102320.44;5067000;28;45311;-59
2024/01/08 01:11:34;;;;;;;;;13.50;10.50;;;;;1.50;59.84;102317.03;5083486;28;48389;-59
2024/01/08 01:14:00;;;;;;;;;15.00;13.50;;;;;1.52;59.20;102315.28;5083803;28;45837;-59
2024/01/08 01:16:29;;;;;;;;;16.75;15.00;;;;;1.53;58.88;102318.81;5084960;28;46915;-59
2024/01/08 01:18:55;;;;;;;;;22.00;20.00;;;;;1.55;59.73;102323.19;5065954;28;45572;-59
2024/01/08 01:21:21;;;;;;;;;17.50;15.50;;;;;1.52;59.04;102328.41;5084929;28;45328;-59
2024/01/08 01:23:47;;;;;;;;;13.00;10.75;;;;;1.49;59.68;102324.00;5069808;28;45564;-59
2024/01/08 01:26:12;;;;;;;;;14.25;13.25;;;;;1.48;59.64;102326.59;5064565;28;46111;-59
2024/01/08 01:28:38;;;;;;;;;13.00;10.67;;;;;1.45;58.88;102327.44;5071906;28;72237;-59
2024/01/08 01:31:04;;;;;;;;;14.33;13.00;;;;;1.43;58.97;102337.00;5056334;28;45829;-59
2024/01/08 01:33:29;;;;;;;;;13.50;11.25;;;;;1.49;60.38;102328.38;5084349;28;45377;-59
2024/01/08 01:35:54;;;;;;;;;19.50;16.25;;;;;1.53;59.75;102324.03;5073345;28;69672;-59
2024/01/08 01:38:21;;;;;;;;;13.00;11.25;;;;;1.55;59.76;102331.06;5056323;28;57279;-59
2024/01/08 01:40:46;;;;;;;;;22.00;14.75;;;;;1.57;59.88;102336.34;5074506;28;45433;-59
2024/01/08 01:43:23;;;;;;;;;17.75;15.00;;;;;1.53;58.98;102327.53;5083455;28;45545;-59
2024/01/08 01:45:49;;;;;;;;;23.25;17.50;;;;;1.48;57.97;102327.47;5064343;28;46732;-59
2024/01/08 01:48:15;;;;;;;;;12.50;12.00;;;;;1.46;58.00;102328.31;5054990;28;45545;-59
2024/01/08 01:50:40;;;;;;;;;15.67;12.00;;;;;1.43;58.24;102336.16;5044905;28;64929;-61
2024/01/08 01:53:06;;;;;;;;;14.00;13.00;;;;;1.44;58.95;102336.16;5062440;28;71226;-59
2024/01/08 01:55:31;;;;;;;;;13.00;11.75;;;;;1.46;59.21;102334.47;5083722;28;74633;-59
2024/01/08 01:57:57;;;;;;;;;14.75;12.50;;;;;1.45;58.98;102324.81;5075745;28;62445;-59
2024/01/08 02:00:22;;;;;;;;;14.75;13.50;;;;;1.47;59.34;102340.56;5072380;28;51009;-59
2024/01/08 02:02:47;;;;;;;;;15.00;15.00;;;;;1.46;58.93;102347.56;5044714;28;70262;-59
2024/01/08 02:05:13;;;;;;;;;21.50;17.00;;;;;1.43;57.96;102344.88;5068027;28;63409;-59
2024/01/08 02:07:39;;;;;;;;;12.33;11.33;;;;;1.40;58.79;102350.09;5068933;28;45409;-59
2024/01/08 02:10:05;;;;;;;;;15.67;12.33;;;;;1.39;58.65;102353.59;5065907;28;45629;-59
2024/01/08 02:12:30;;;;;;;;;13.33;11.00;;;;;1.37;58.30;102357.94;5068150;28;45514;-59
2024/01/08 02:14:56;;;;;;;;;10.67;9.67;;;;;1.34;58.28;102349.16;5073495;28;46111;-59
2024/01/08 02:17:21;;;;;;;;;9.67;7.00;;;;;1.32;58.21;102346.50;5079802;28;73193;-59
2024/01/08 02:19:46;;;;;;;;;10.00;10.00;;;;;1.30;58.40;102350.84;5061880;28;50397;-59
2024/01/08 02:22:12;;;;;;;;;16.25;8.50;;;;;1.26;57.60;102349.91;5067255;28;68694;-60
2024/01/08 02:24:38;;;;;;;;;9.25;8.00;;;;;1.26;58.50;102346.41;5074275;28;47041;-59
2024/01/08 02:27:03;;;;;;;;;4.75;4.75;;;;;1.25;57.68;102350.81;5052791;28;45363;-59
2024/01/08 02:29:30;;;;;;;;;11.00;7.50;;;;;1.26;58.52;102341.19;5069519;28;45670;-59
2024/01/08 02:31:55;;;;;;;;;11.50;11.50;;;;;1.24;58.07;102338.53;5066428;28;45411;-59
2024/01/08 02:34:20;;;;;;;;;6.33;6.33;;;;;1.26;58.55;102346.41;5063402;28;60066;-60
2024/01/08 02:36:45;;;;;;;;;10.00;7.75;;;;;1.26;57.92;102355.16;5072597;28;72012;-59
2024/01/08 02:39:11;;;;;;;;;8.75;7.25;;;;;1.28;58.38;102342.09;5073232;28;65050;-59
2024/01/08 02:41:36;;;;;;;;;8.00;8.00;;;;;1.25;58.38;102337.69;5063207;28;45372;-59
2024/01/08 02:44:01;;;;;;;;;14.25;12.00;;;;;1.23;58.69;102334.16;5045323;28;45384;-59
2024/01/08 02:46:27;;;;;;;;;14.00;7.00;;;;;1.24;58.13;102351.66;5075578;28;68032;-59
2024/01/08 02:48:52;;;;;;;;;8.00;8.00;;;;;1.24;58.80;102348.13;5058994;28;68274;-60
2024/01/08 02:51:17;;;;;;;;;8.25;8.25;;;;;1.26;57.99;102349.03;5068645;28;61305;-59
2024/01/08 02:53:44;;;;;;;;;11.75;11.25;;;;;1.28;58.73;102342.97;5061727;28;69809;-59
2024/01/08 02:56:19;;;;;;;;;18.75;11.25;;;;;1.29;58.93;102335.97;5076399;28;45823;-62
2024/01/08 02:58:46;;;;;;;;;14.75;8.00;;;;;1.29;58.39;102359.56;5080740;28;45463;-59
2024/01/08 03:01:12;;;;;;;;;14.25;11.00;;;;;1.26;58.57;102356.91;5059626;28;45356;-59
2024/01/08 03:03:37;;;;;;;;;21.00;14.00;;;;;1.25;59.19;102357.75;5064970;28;45455;-59
2024/01/08 03:06:02;;;;;;;;;16.75;12.25;;;;;1.20;58.75;102347.22;5065327;28;72795;-59
2024/01/08 03:08:28;;;;;;;;;12.00;11.00;;;;;1.14;58.79;102353.25;5044469;28;46030;-59
2024/01/08 03:10:53;;;;;;;;;13.00;11.75;;;;;1.16;58.95;102363.75;5079112;28;59648;-59
2024/01/08 03:13:18;;;;;;;;;11.50;11.50;;;;;1.16;59.15;102355.88;5070452;28;73747;-59
2024/01/08 03:15:44;;;;;;;;;5.50;5.00;;;;;1.15;59.39;102364.63;5063736;28;45417;-59
2024/01/08 03:18:09;;;;;;;;;3.67;2.33;;;;;1.14;59.74;102357.63;5040243;28;67327;-59
2024/01/08 03:20:34;;;;;;;;;16.25;12.25;;;;;1.15;59.29;102365.50;5046250;28;45843;-59
2024/01/08 03:23:00;;;;;;;;;12.50;8.25;;;;;1.16;59.36;102363.75;5060767;28;63176;-59
2024/01/08 03:25:25;;;;;;;;;14.00;10.75;;;;;1.18;59.12;102369.03;5062731;28;70768;-59
2024/01/08 03:27:50;;;;;;;;;15.25;9.25;;;;;1.18;59.21;102366.41;5073302;28;64933;-59
2024/01/08 03:30:15;;;;;;;;;11.00;8.75;;;;;1.19;59.02;102370.78;5049403;28;57103;-59
2024/01/08 03:32:41;;;;;;;;;12.00;12.00;;;;;1.22;59.42;102376.09;5072316;28;75407;-59
2024/01/08 03:35:06;;;;;;;;;20.75;13.00;;;;;1.21;58.60;102374.31;5065707;28;45417;-59
2024/01/08 03:37:32;;;;;;;;;12.00;9.75;;;;;1.21;58.81;102371.69;5051285;28;45284;-59
2024/01/08 03:39:58;;;;;;;;;13.00;10.75;;;;;1.18;59.10;102372.53;5068167;28;63302;-59
2024/01/08 03:42:23;;;;;;;;;6.00;6.00;;;;;1.13;59.00;102368.97;5055309;28;46058;-59
2024/01/08 03:44:48;;;;;;;;;6.00;6.00;;;;;1.13;59.90;102372.47;5063084;28;45349;-58
2024/01/08 03:47:14;;;;;;;;;12.75;10.00;;;;;1.15;59.66;102372.50;5068889;28;65487;-59
2024/01/08 03:49:39;;;;;;;;;11.25;11.00;;;;;1.16;59.58;102371.63;5057328;28;45439;-59
2024/01/08 03:52:04;;;;;;;;;12.00;7.50;;;;;1.15;58.91;102369.88;5071547;28;70552;-59
2024/01/08 03:54:30;;;;;;;;;10.50;7.00;;;;;1.11;58.98;102373.31;5072607;28;45249;-59
2024/01/08 03:56:55;;;;;;;;;7.00;7.00;;;;;1.11;58.63;102360.22;5072712;28;56810;-59
2024/01/08 03:59:20;;;;;;;;;10.50;8.50;;;;;1.10;58.54;102371.56;5062685;28;59968;-59
2024/01/08 04:01:46;;;;;;;;;5.75;4.50;;;;;1.06;58.95;102382.84;5067972;28;45984;-58
2024/01/08 04:04:12;;;;;;;;;10.75;10.75;;;;;1.04;58.25;102390.66;5077987;28;45491;-59
2024/01/08 04:06:38;;;;;;;;;8.75;8.75;;;;;1.01;58.30;102384.53;5068348;28;65047;-59
2024/01/08 04:09:03;;;;;;;;;11.00;7.00;;;;;1.00;58.36;102378.38;5065890;28;45380;-59
2024/01/08 04:11:29;;;;;;;;;12.50;11.25;;;;;1.02;58.43;102383.63;5072281;28;46350;-59
2024/01/08 04:13:55;;;;;;;;;10.75;10.75;;;;;1.00;57.53;102399.34;5067236;28;45382;-59
2024/01/08 04:16:20;;;;;;;;;8.00;8.00;;;;;0.99;57.70;102382.75;5063835;28;45608;-59
2024/01/08 04:18:45;;;;;;;;;11.50;9.50;;;;;1.01;57.85;102387.16;5078694;28;45488;-59
2024/01/08 04:21:16;;;;;;;;;9.00;7.00;;;;;0.99;58.85;102390.63;5071394;28;65589;-59
2024/01/08 04:23:41;;;;;;;;;11.75;11.75;;;;;0.97;57.86;102391.44;5077514;28;45486;-59
2024/01/08 04:26:06;;;;;;;;;11.50;10.50;;;;;0.93;57.90;102402.75;5069391;28;67932;-59
2024/01/08 04:28:31;;;;;;;;;10.75;7.00;;;;;0.88;57.66;102404.41;5066955;28;68126;-59
2024/01/08 04:30:57;;;;;;;;;11.00;11.00;;;;;0.85;57.41;102394.78;5068721;28;75954;-58
2024/01/08 04:33:22;;;;;;;;;10.50;10.00;;;;;0.82;58.47;102392.97;5065595;28;71197;-59
2024/01/08 04:35:47;;;;;;;;;12.50;9.00;;;;;0.78;57.32;102393.78;5061564;28;68836;-62
2024/01/08 04:38:13;;;;;;;;;10.25;10.00;;;;;0.79;57.96;102405.13;5056609;28;68268;-58
2024/01/08 04:40:38;;;;;;;;;8.25;8.25;;;;;0.76;57.80;102390.25;5077186;28;46010;-59
2024/01/08 04:43:03;;;;;;;;;10.75;8.75;;;;;0.78;58.27;102406.00;5063857;28;70267;-58
2024/01/08 04:45:30;;;;;;;;;11.25;8.25;;;;;0.79;58.04;102397.28;5064366;28;51404;-59
2024/01/08 04:47:55;;;;;;;;;15.25;13.00;;;;;0.75;57.58;102404.19;5051767;28;45456;-59
2024/01/08 04:50:20;;;;;;;;;11.25;10.75;;;;;0.77;58.22;102398.97;5078104;28;45377;-58
2024/01/08 04:52:45;;;;;;;;;6.50;6.50;;;;;0.78;58.16;102390.28;5075564;28;71926;-59
2024/01/08 04:55:12;;;;;;;;;11.50;10.25;;;;;0.80;58.04;102399.06;5066090;28;68143;-59
2024/01/08 04:57:37;;;;;;;;;15.75;12.25;;;;;0.81;57.88;102401.69;5070820;28;45420;-58
2024/01/08 05:00:03;;;;;;;;;13.00;12.50;;;;;0.80;58.66;102392.06;5070162;28;72660;-59
2024/01/08 05:02:29;;;;;;;;;17.00;8.00;;;;;0.77;59.02;102384.16;5060398;28;45434;-58
2024/01/08 05:04:54;;;;;;;;;7.75;6.75;;;;;0.76;58.33;102392.88;5071487;28;52734;-58
2024/01/08 05:07:19;;;;;;;;;8.50;8.50;;;;;0.78;57.65;102398.13;5052125;28;69935;-58
2024/01/08 05:09:44;;;;;;;;;13.75;8.25;;;;;0.76;58.04;102405.09;5074998;28;74584;-58
2024/01/08 05:12:10;;;;;;;;;9.00;9.00;;;;;0.71;57.32;102405.00;5077138;28;73059;-58
2024/01/08 05:14:35;;;;;;;;;13.25;7.00;;;;;0.64;56.51;102409.28;5077618;28;69342;-58
2024/01/08 05:17:00;;;;;;;;;9.50;8.00;;;;;0.60;57.48;102396.09;5068384;28;69550;-59
2024/01/08 05:19:26;;;;;;;;;12.25;8.50;;;;;0.60;57.69;102406.56;5045890;28;46705;-59
2024/01/08 05:21:53;;;;;;;;;15.00;14.00;;;;;0.57;58.00;102403.91;5071359;28;67808;-58
2024/01/08 05:24:18;;;;;;;;;10.25;8.25;;;;;0.56;57.35;102402.13;5074258;28;45422;-59
2024/01/08 05:26:43;;;;;;;;;15.00;11.00;;;;;0.57;57.38;102406.53;5072994;28;70595;-59
2024/01/08 05:29:09;;;;;;;;;15.25;14.50;;;;;0.53;57.35;102395.09;5074574;28;46017;-59
2024/01/08 05:31:34;;;;;;;;;13.75;12.00;;;;;0.60;56.96;102402.22;5077354;28;65075;-59
2024/01/08 05:33:59;;;;;;;;;11.00;8.75;;;;;0.61;56.63;102400.47;5075258;28;45653;-58
2024/01/08 05:36:25;;;;;;;;;9.50;6.50;;;;;0.61;56.61;102410.94;5060324;28;69451;-59
2024/01/08 05:38:50;;;;;;;;;17.50;11.00;;;;;0.58;57.12;102413.53;5070862;28;46100;-59
2024/01/08 05:41:18;;;;;;;;;14.25;11.50;;;;;0.56;56.81;102407.38;5071575;28;45381;-59
2024/01/08 05:43:43;;;;;;;;;11.25;8.25;;;;;0.59;57.49;102404.81;5045669;28;45341;-59
2024/01/08 05:46:09;;;;;;;;;12.25;10.50;;;;;0.57;56.79;102404.78;5060183;28;45803;-59
2024/01/08 05:48:37;;;;;;;;;16.25;14.00;;;;;0.57;57.35;102409.13;5066118;28;46011;-58
2024/01/08 05:51:04;;;;;;;;;10.50;9.00;;;;;0.54;56.81;102412.59;5057556;28;45602;-59
2024/01/08 05:53:29;;;;;;;;;7.00;7.00;;;;;0.56;57.23;102396.88;5073191;28;45406;-59
2024/01/08 05:55:54;;;;;;;;;8.25;6.25;;;;;0.59;57.53;102408.31;5070062;28;70379;-58
2024/01/08 05:58:19;;;;;;;;;13.00;12.50;;;;;0.59;56.84;102405.69;5074628;28;68817;-58
2024/01/08 06:00:45;;;;;;;;;12.50;11.00;;;;;0.56;55.88;102410.00;5081198;28;45787;-59
2024/01/08 06:03:10;;;;;;;;;12.25;11.25;;;;;0.59;56.88;102407.44;5049096;28;66632;-58
2024/01/08 06:05:35;;;;;;;;;15.25;12.25;;;;;0.57;56.47;102398.66;5069908;28;67030;-58
2024/01/08 06:08:01;;;;;;;;;8.25;7.50;;;;;0.55;56.50;102419.59;5045705;28;71136;-58
2024/01/08 06:10:26;;;;;;;;;7.75;7.00;;;;;0.59;57.17;102415.31;5073727;28;68451;-58
2024/01/08 06:12:51;;;;;;;;;18.25;13.25;;;;;0.60;56.68;102415.31;5053721;28;45321;-59
2024/01/08 06:15:17;;;;;;;;;11.25;11.25;;;;;0.60;56.07;102409.19;5067159;28;45549;-58
2024/01/08 06:17:44;;;;;;;;;14.00;14.00;;;;;0.58;56.78;102406.53;5071183;28;74536;-58
2024/01/08 06:20:10;;;;;;;;;14.00;9.25;;;;;0.58;56.63;102410.91;5071354;28;45340;-58
2024/01/08 06:22:35;;;;;;;;;15.50;11.25;;;;;0.61;58.07;102413.56;5070219;27;45502;-58
2024/01/08 06:25:00;;;;;;;;;11.00;11.00;;;;;0.63;57.54;102423.22;5068760;28;45708;-58
2024/01/08 06:27:26;;;;;;;;;17.00;13.50;;;;;0.67;57.92;102418.91;5068249;28;58470;-59
2024/01/08 06:29:51;;;;;;;;;9.25;8.75;;;;;0.69;58.71;102417.19;5075518;28;64032;-58
2024/01/08 06:32:16;;;;;;;;;8.75;7.00;;;;;0.73;58.85;102416.41;5072286;28;46603;-58
2024/01/08 06:34:42;;;;;;;;;10.75;10.50;;;;;0.79;58.44;102423.47;5079429;28;55425;-49
2024/01/08 06:37:07;;;;;;;;;14.50;10.25;;;;;0.79;58.27;102424.34;5080157;28;46255;-55
2024/01/08 06:39:33;;;;;;;;;9.00;8.25;;;;;0.77;57.80;102428.69;5073822;28;59758;-50
2024/01/08 06:41:58;;;;;;;;;6.25;6.25;;;;;0.75;58.60;102422.53;5069980;28;45479;-55
2024/01/08 06:44:23;;;;;;;;;12.50;11.25;;;;;0.75;58.06;102433.03;5078451;28;45605;-55
2024/01/08 06:46:49;;;;;;;;;11.00;7.00;;;;;0.72;57.69;102430.34;5073443;28;72666;-55
2024/01/08 06:49:15;;;;;;;;;15.25;14.50;;;;;0.73;57.34;102429.50;5062841;28;72194;-55
2024/01/08 06:51:41;;;;;;;;;14.00;13.25;;;;;0.72;57.97;102427.75;5069854;28;45540;-55
2024/01/08 06:54:07;;;;;;;;;10.00;8.00;;;;;0.72;57.97;102430.34;5070043;28;45636;-56
2024/01/08 06:56:33;;;;;;;;;11.00;11.00;;;;;0.73;57.58;102428.59;5056960;28;46168;-54
2024/01/08 06:59:01;;;;;;;;;10.00;8.75;;;;;0.75;58.12;102437.38;5066395;28;45969;-55
2024/01/08 07:01:26;;;;;;;;;16.00;12.00;;;;;0.70;55.58;102428.56;5073702;28;45543;-55
2024/01/08 07:03:53;;;;;;;;;13.50;10.25;;;;;0.64;56.34;102430.22;5067261;28;45521;-55
2024/01/08 07:06:18;;;;;;;;;12.00;11.50;;;;;0.62;56.50;102429.31;5073074;28;75501;-54
2024/01/08 07:08:45;;;;;;;;;17.50;15.00;;;;;0.62;55.94;102425.81;5054474;28;53144;-56
2024/01/08 07:11:19;;;;;;;;;12.00;9.75;;;;;0.59;56.13;102424.03;5074308;28;45325;-56
2024/01/08 07:13:45;;;;;;;;;16.00;12.00;;;;;0.60;56.24;102428.41;5063878;28;45684;-55
2024/01/08 07:16:10;;;;;;;;;15.50;11.00;;;;;0.59;56.49;102438.88;5057811;28;75000;-55
2024/01/08 07:18:36;;;;;;;;;19.25;16.00;;;;;0.57;55.81;102425.72;5062666;28;45513;-55
2024/01/08 07:21:01;;;;;;;;;15.00;12.25;;;;;0.60;56.79;102438.00;5074130;28;45364;-53
2024/01/08 07:23:27;;;;;;;;;15.75;12.25;;;;;0.56;56.29;102425.69;5069163;28;45634;-50
2024/01/08 07:25:52;;;;;;;;;14.50;12.00;;;;;0.57;56.86;102419.63;5053117;28;46038;-53
2024/01/08 07:28:18;;;;;;;;;15.00;13.75;;;;;0.56;57.21;102420.47;5067628;28;45362;-53
2024/01/08 07:30:43;;;;;;;;;12.75;11.50;;;;;0.59;57.18;102416.16;5065100;28;45741;-54
2024/01/08 07:33:09;;;;;;;;;13.25;11.25;;;;;0.62;57.57;102423.19;5067849;28;69495;-55
2024/01/08 07:35:34;;;;;;;;;11.75;10.25;;;;;0.65;57.18;102429.38;5069184;28;45689;-56
2024/01/08 07:37:59;;;;;;;;;17.25;15.25;;;;;0.66;57.43;102427.63;5070798;28;45542;-55
2024/01/08 07:40:25;;;;;;;;;14.00;12.50;;;;;0.66;56.75;102427.63;5047898;28;45354;-54
2024/01/08 07:43:00;;;;;;;;;11.25;10.25;;;;;0.61;57.21;102431.91;5065539;28;45489;-54
2024/01/08 07:45:26;;;;;;;;;11.00;10.50;;;;;0.61;57.23;102427.56;5051248;28;46857;-53
2024/01/08 07:47:52;;;;;;;;;15.75;11.00;;;;;0.64;57.52;102424.13;5065708;28;45785;-53
2024/01/08 07:50:18;;;;;;;;;11.25;10.25;;;;;0.61;56.65;102419.72;5071809;28;45411;-50
2024/01/08 07:52:43;;;;;;;;;10.75;10.00;;;;;0.62;57.11;102420.56;5079458;28;45465;-54
2024/01/08 07:55:09;;;;;;;;;14.75;12.00;;;;;0.61;57.40;102427.56;5035042;28;45965;-52
2024/01/08 07:57:35;;;;;;;;;17.75;17.25;;;;;0.60;57.53;102425.78;5072978;28;45275;-51
2024/01/08 08:00:01;;;;;;;;;15.00;15.00;;;;;0.57;57.35;102436.19;5069783;28;46835;-54
2024/01/08 08:02:26;;;;;;;;;9.00;9.00;;;;;0.52;56.57;102429.13;5068621;28;45477;-53
2024/01/08 08:04:54;;;;;;;;;14.25;11.25;;;;;0.48;56.88;102426.47;5062863;28;74383;-52
2024/01/08 08:07:19;;;;;;;;;12.25;10.25;;;;;0.46;56.65;102433.41;5068891;28;67478;-54
2024/01/08 08:09:45;;;;;;;;;16.00;14.25;;;;;0.50;57.69;102431.72;5065025;28;45465;-52
2024/01/08 08:12:10;;;;;;;;;16.50;11.50;;;;;0.51;57.68;102433.50;5065611;28;45758;-53
2024/01/08 08:14:36;;;;;;;;;19.75;15.00;;;;;0.49;56.72;102428.19;5065059;28;63522;-54
2024/01/08 08:17:03;;;;;;;;;14.00;11.50;;;;;0.53;57.61;102423.03;5065733;28;45597;-53
2024/01/08 08:19:29;;;;;;;;;12.25;11.25;;;;;0.54;57.38;102430.06;5073763;28;45324;-53
2024/01/08 08:21:54;;;;;;;;;12.25;12.25;;;;;0.54;56.81;102448.38;5061340;28;45585;-51
2024/01/08 08:24:19;;;;;;;;;14.75;12.75;;;;;0.56;56.56;102433.56;5061924;28;55319;-52
2024/01/08 08:26:45;;;;;;;;;15.00;10.50;;;;;0.60;56.75;102433.66;5062955;28;69904;-50
2024/01/08 08:29:10;;;;;;;;;15.75;10.00;;;;;0.61;57.17;102434.53;5071027;28;47110;-53
2024/01/08 08:31:35;;;;;;;;;14.00;11.50;;;;;0.62;57.43;102436.28;5067300;28;45492;-53
2024/01/08 08:34:01;;;;;;;;;15.00;11.00;;;;;0.62;57.63;102446.78;5065863;28;45955;-52
2024/01/08 08:36:27;;;;;;;;;15.00;14.00;;;;;0.65;57.35;102439.84;5045001;28;47245;-50
2024/01/08 08:38:52;;;;;;;;;10.75;9.25;;;;;0.65;57.23;102437.22;5067938;28;45442;-53
2024/01/08 08:41:19;;;;;;;;;19.25;16.00;;;;;0.69;57.24;102446.00;5062451;28;61757;-50
2024/01/08 08:43:44;;;;;;;;;13.75;11.75;;;;;0.73;57.11;102449.56;5067254;28;47477;-53
2024/01/08 08:46:10;;;;;;;;;13.00;11.00;;;;;0.74;57.88;102448.72;5064938;28;45596;-51
2024/01/08 08:48:36;;;;;;;;;13.50;13.50;;;;;0.76;57.74;102455.75;5038626;28;63716;-51
2024/01/08 08:51:01;;;;;;;;;12.50;11.00;;;;;0.72;58.08;102451.31;5060302;28;45513;-50
2024/01/08 08:53:28;;;;;;;;;16.00;13.00;;;;;0.74;58.25;102452.19;5070568;28;45425;-53
2024/01/08 08:55:53;;;;;;;;;12.50;11.25;;;;;0.74;58.43;102464.44;5065441;28;45585;-52
2024/01/08 08:58:19;;;;;;;;;18.50;14.50;;;;;0.73;58.22;102460.94;5067900;28;45515;-54
2024/01/08 09:00:46;;;;;;;;;6.00;6.00;;;;;0.73;58.55;102460.94;5062531;28;45446;-53
2024/01/08 09:03:11;;;;;;;;;13.00;7.25;;;;;0.75;58.81;102459.22;5060711;28;46192;-51
2024/01/08 09:05:37;;;;;;;;;8.75;8.75;;;;;0.79;58.47;102462.78;5069434;28;45363;-52
2024/01/08 09:08:02;;;;;;;;;26.00;14.00;;;;;0.82;58.81;102466.34;5063225;28;45629;-53
2024/01/08 09:10:28;;;;;;;;;15.25;13.75;;;;;0.84;58.40;102462.88;5064544;28;45569;-54
2024/01/08 09:12:53;;;;;;;;;20.00;12.25;;;;;0.86;58.19;102462.03;5067276;28;46131;-52
2024/01/08 09:15:19;;;;;;;;;13.50;9.50;;;;;0.89;58.34;102463.84;5074264;28;72901;-56
2024/01/08 09:17:44;;;;;;;;;9.00;8.25;;;;;0.93;58.77;102468.25;5073445;28;68144;-53
2024/01/08 09:20:10;;;;;;;;;17.25;11.25;;;;;0.95;58.74;102456.94;5058101;28;68466;-51
2024/01/08 09:22:35;;;;;;;;;11.00;10.00;;;;;0.98;57.92;102462.22;5077531;28;45414;-50
2024/01/08 09:25:01;;;;;;;;;11.25;11.25;;;;;1.02;58.21;102457.94;5060523;28;45770;-54
2024/01/08 09:27:27;;;;;;;;;17.00;16.00;;;;;1.01;57.82;102465.78;5079731;28;45467;-52
2024/01/08 09:29:53;;;;;;;;;12.25;8.25;;;;;0.97;57.75;102464.84;5059867;28;46036;-50
2024/01/08 09:32:18;;;;;;;;;12.50;11.00;;;;;1.00;58.81;102472.72;5061344;28;75214;-52
2024/01/08 09:34:43;;;;;;;;;14.50;10.50;;;;;1.02;58.34;102470.13;5059665;28;71908;-52
2024/01/08 09:37:08;;;;;;;;;17.75;15.75;;;;;0.99;58.75;102473.56;5071965;28;68246;-51
2024/01/08 09:39:35;;;;;;;;;19.75;16.25;;;;;0.95;59.51;102487.50;5056991;28;71576;-52
2024/01/08 09:42:03;;;;;;;;;15.75;10.75;;;;;0.87;59.05;102476.00;5079878;28;45429;-53
2024/01/08 09:44:29;;;;;;;;;17.50;14.25;;;;;0.82;59.81;102483.78;5062820;28;45435;-52
2024/01/08 09:46:55;;;;;;;;;14.75;14.75;;;;;0.79;59.62;102486.34;5057321;28;45291;-53
2024/01/08 09:49:22;;;;;;;;;15.50;14.50;;;;;0.79;60.58;102492.47;5079802;28;62958;-52
2024/01/08 09:51:48;;;;;;;;;7.75;7.75;;;;;0.79;60.66;102489.84;5052191;28;74324;-50
2024/01/08 09:54:14;;;;;;;;;20.25;15.50;;;;;0.77;61.07;102491.56;5054063;28;45419;-53
2024/01/08 09:56:40;;;;;;;;;10.25;7.00;;;;;0.80;61.17;102489.00;5061191;28;45451;-50
2024/01/08 09:59:05;;;;;;;;;15.25;14.50;;;;;0.82;61.48;102491.63;5071607;28;68304;-50
2024/01/08 10:01:31;;;;;;;;;14.50;12.50;;;;;0.84;60.97;102503.03;5073413;28;46136;-53
2024/01/08 10:03:57;;;;;;;;;13.25;11.25;;;;;0.87;61.13;102494.34;5076716;28;45485;-49
2024/01/08 10:06:22;;;;;;;;;16.00;12.25;;;;;0.87;61.63;102502.22;5069060;28;67443;-53
2024/01/08 10:08:47;;;;;;;;;12.00;11.00;;;;;0.85;62.10;102496.06;5070144;27;63569;-52
2024/01/08 10:11:13;;;;;;;;;17.25;14.50;;;;;0.88;62.98;102501.38;5054030;28;70606;-54
2024/01/08 10:13:40;;;;;;;;;23.00;14.25;;;;;0.88;62.89;102493.50;5070112;28;45677;-52
2024/01/08 10:16:07;;;;;;;;;22.25;17.50;;;;;0.88;62.53;102496.13;5067516;28;45731;-54
2024/01/08 10:18:32;;;;;;;;;15.50;11.75;;;;;0.88;63.22;102490.88;5030063;28;45696;-53
2024/01/08 10:21:11;;;;;;;;;19.50;16.00;;;;;0.87;63.03;102500.47;5049825;28;47835;-52
2024/01/08 10:23:37;;;;;;;;;16.25;9.75;;;;;0.90;63.46;102497.91;5072204;28;45352;-53
2024/01/08 10:26:02;;;;;;;;;20.75;17.50;;;;;0.87;62.74;102492.59;5067733;28;46054;-54
2024/01/08 10:28:33;;;;;;;;;18.25;16.50;;;;;0.87;63.39;102486.50;5068776;28;49504;-53
2024/01/08 10:30:59;;;;;;;;;24.50;18.75;;;;;0.84;63.59;102484.69;5068677;28;45578;-52
2024/01/08 10:33:24;;;;;;;;;21.00;16.25;;;;;0.84;63.45;102484.69;5063593;28;45380;-54
2024/01/08 10:35:51;;;;;;;;;22.75;16.00;;;;;0.85;64.45;102488.19;5070013;28;45640;-53
2024/01/08 10:38:17;;;;;;;;;17.00;15.25;;;;;0.84;64.65;102483.84;5050414;28;45563;-53
2024/01/08 10:40:43;;;;;;;;;25.50;19.25;;;;;0.79;64.71;102487.22;5068938;28;74456;-50
2024/01/08 10:43:08;;;;;;;;;24.50;14.50;;;;;0.76;65.65;102488.94;5057580;28;73271;-54
2024/01/08 10:45:34;;;;;;;;;15.00;13.00;;;;;0.67;67.11;102484.41;5058263;28;45347;-51
2024/01/08 10:48:09;;;;;;;;;24.50;16.75;;;;;0.60;67.28;102480.78;5065822;28;45302;-52
2024/01/08 10:50:37;;;;;;;;;40.25;31.75;;;;;0.60;67.40;102474.66;5057574;28;48118;-51
2024/01/08 10:53:05;;;;;;;;;19.50;18.75;;;;;0.60;66.87;102480.78;5041064;28;45390;-51
2024/01/08 10:55:30;;;;;;;;;16.25;15.75;;;;;0.58;67.53;102477.25;5054251;28;45532;-53
2024/01/08 10:57:59;;;;;;;;;15.75;13.00;;;;;0.59;68.04;102478.16;5046979;28;67629;-49
2024/01/08 11:00:26;;;;;;;;;26.50;19.00;;;;;0.59;68.71;102478.16;5042301;28;47183;-54
2024/01/08 11:02:52;;;;;;;;;26.75;21.75;;;;;0.62;67.94;102475.59;5069990;28;45398;-49
2024/01/08 11:05:20;;;;;;;;;26.75;21.50;;;;;0.66;67.91;102464.28;5043740;28;45580;-53
2024/01/08 11:07:49;;;;;;;;;26.75;16.25;;;;;0.72;67.91;102468.75;5067295;28;45437;-52
2024/01/08 11:10:15;;;;;;;;;16.00;16.00;;;;;0.80;67.48;102472.41;5070875;28;45253;-51
2024/01/08 11:12:42;;;;;;;;;23.75;22.25;;;;;0.90;67.63;102462.94;5048133;28;45400;-54